Time;durP1;ratioP1;P1;durP2;ratioP2;P2;SDS_P1;SDS_P2;PMS_P1;PMS_P2;Temp;Humidity;BMP_temperature;BMP_pressure;BME280_temperature;BME280_humidity;BME280_pressure;Samples;Min_cycle;Max_cycle;Signal;HPM_P1;HPM_P2
2022/09/05 00:10:11;;;;;;;1.30;0.40;;;19.80;77.90;;;;;;5986627;23;20531;-82
2022/09/05 01:08:56;;;;;;;1.35;0.52;;;19.20;82.20;;;;;;6111356;23;20358;-81
2022/09/05 01:20:26;;;;;;;;;;;;;;;;;;;;;
2022/09/05 04:10:13;;;;;;;2.45;2.25;;;17.80;91.40;;;;;;6109111;23;20026;-81
2022/09/05 04:26:03;;;;;;;3.85;2.63;;;17.60;91.90;;;;;;6115355;23;20030;-81
2022/09/05 04:33:35;;;;;;;3.22;1.95;;;17.50;92.30;;;;;;6133456;23;20393;-82
2022/09/05 04:36:20;;;;;;;3.53;2.03;;;17.50;92.20;;;;;;6056435;23;20002;-82
2022/09/05 04:39:06;;;;;;;3.90;2.17;;;17.50;92.50;;;;;;6114055;23;20032;-83
2022/09/05 04:41:37;;;;;;;5.25;4.05;;;17.50;92.60;;;;;;6080516;23;20024;-82
2022/09/05 04:44:13;;;;;;;6.03;3.97;;;17.50;92.60;;;;;;6075556;23;20450;-82
2022/09/05 04:46:49;;;;;;;8.25;5.75;;;17.50;92.70;;;;;;6027308;23;20354;-82
2022/09/05 04:49:27;;;;;;;7.90;6.20;;;17.50;92.90;;;;;;6074864;23;20017;-82
2022/09/05 04:52:36;;;;;;;6.70;5.20;;;17.50;93.00;;;;;;6110599;23;20040;-83
2022/09/05 04:55:09;;;;;;;6.35;4.68;;;17.60;93.30;;;;;;6101902;23;20007;-83
2022/09/05 04:57:53;;;;;;;8.20;5.95;;;17.50;93.20;;;;;;6084261;23;20017;-81
2022/09/05 05:00:27;;;;;;;8.55;7.10;;;17.50;93.40;;;;;;6094560;23;20010;-85
2022/09/05 05:02:59;;;;;;;6.25;5.03;;;17.50;93.50;;;;;;6089367;23;20363;-84
2022/09/05 05:05:55;;;;;;;6.50;4.70;;;17.50;93.60;;;;;;6076222;23;20347;-83
2022/09/05 05:08:29;;;;;;;9.10;7.97;;;17.40;93.70;;;;;;6027612;23;20007;-84
2022/09/05 05:11:05;;;;;;;10.07;6.40;;;17.40;93.70;;;;;;6100890;23;20021;-81
2022/09/05 05:14:01;;;;;;;4.65;3.97;;;17.40;94.00;;;;;;6075625;23;20013;-84
2022/09/05 05:16:45;;;;;;;4.30;3.65;;;17.40;94.00;;;;;;6087197;23;20010;-84
2022/09/05 05:19:22;;;;;;;2.88;2.63;;;17.30;94.10;;;;;;6111412;23;20013;-82
2022/09/05 05:21:58;;;;;;;;;;;17.30;94.20;;;;;;6075616;23;20003;-84
2022/09/05 05:24:30;;;;;;;4.22;2.55;;;17.40;94.10;;;;;;6074263;23;19915;-81
2022/09/05 05:27:14;;;;;;;5.00;2.78;;;17.30;94.10;;;;;;6058069;23;20003;-84
2022/09/05 05:30:05;;;;;;;4.75;3.20;;;17.40;94.30;;;;;;6082809;23;20366;-84
2022/09/05 05:32:36;;;;;;;3.83;2.63;;;17.40;94.40;;;;;;6075640;23;20014;-83
2022/09/05 05:35:11;;;;;;;3.97;2.88;;;17.40;94.40;;;;;;6075633;23;20013;-84
2022/09/05 05:37:48;;;;;;;4.93;3.50;;;17.40;94.50;;;;;;6108023;23;20007;-83
2022/09/05 05:40:14;;;;;;;4.38;3.60;;;17.40;94.60;;;;;;6108850;23;20011;-83
2022/09/05 05:42:42;;;;;;;4.05;3.60;;;17.50;94.70;;;;;;6099552;23;20016;-82
2022/09/05 05:45:24;;;;;;;4.15;3.75;;;17.50;94.80;;;;;;6098591;23;20007;-82
2022/09/05 05:47:56;;;;;;;6.82;4.78;;;17.50;94.90;;;;;;6074969;23;20014;-82
2022/09/05 05:50:23;;;;;;;;;;;17.60;95.00;;;;;;6052132;23;20002;-83
2022/09/05 05:52:59;;;;;;;5.07;3.30;;;17.70;95.00;;;;;;6101551;23;19917;-83
2022/09/05 05:56:03;;;;;;;5.88;4.53;;;17.80;95.10;;;;;;6112002;23;20021;-83
2022/09/05 05:59:17;;;;;;;5.25;4.60;;;17.90;95.20;;;;;;6055019;23;20010;-84
2022/09/05 06:02:13;;;;;;;4.60;4.00;;;18.00;95.20;;;;;;6057285;23;20013;-83
2022/09/05 06:05:01;;;;;;;6.35;4.50;;;18.20;95.00;;;;;;6076095;23;20034;-83
2022/09/05 06:08:14;;;;;;;3.83;3.25;;;18.40;95.00;;;;;;6103356;23;20002;-82
2022/09/05 06:10:53;;;;;;;4.93;4.10;;;18.60;95.00;;;;;;6013849;23;20091;-84
2022/09/05 06:13:54;;;;;;;4.28;3.60;;;18.80;94.90;;;;;;6016267;23;20049;-85
2022/09/05 06:16:46;;;;;;;4.80;4.30;;;19.10;94.80;;;;;;6065261;23;20003;-84
2022/09/05 06:19:51;;;;;;;4.07;3.35;;;19.30;94.80;;;;;;6052536;23;20355;-83
2022/09/05 06:22:43;;;;;;;6.13;4.80;;;19.50;94.60;;;;;;6100882;23;20003;-84
2022/09/05 06:25:26;;;;;;;4.35;3.95;;;19.70;94.50;;;;;;6076473;23;20002;-84
2022/09/05 06:28:29;;;;;;;6.15;4.63;;;19.90;94.40;;;;;;6075701;23;20025;-83
2022/09/05 06:30:59;;;;;;;5.22;4.72;;;20.10;94.20;;;;;;6054035;23;20006;-84
2022/09/05 06:33:45;;;;;;;6.20;4.40;;;20.30;94.10;;;;;;6075860;23;20017;-84
2022/09/05 06:36:12;;;;;;;4.25;3.85;;;20.40;94.10;;;;;;6086030;23;20011;-83
2022/09/05 06:39:09;;;;;;;5.28;4.63;;;20.60;93.90;;;;;;6053054;23;20028;-83
2022/09/05 06:42:08;;;;;;;5.65;4.25;;;20.70;93.90;;;;;;6077313;23;20014;-83
2022/09/05 06:45:04;;;;;;;5.28;4.35;;;20.80;93.80;;;;;;6028692;23;20366;-84
2022/09/05 06:47:42;;;;;;;5.00;4.03;;;20.90;93.70;;;;;;6055416;23;20017;-83
2022/09/05 06:50:21;;;;;;;4.47;4.03;;;21.10;93.60;;;;;;6088065;23;19999;-82
2022/09/05 06:53:21;;;;;;;4.70;4.00;;;21.20;93.50;;;;;;6104856;23;20014;-83
2022/09/05 06:55:57;;;;;;;5.15;4.60;;;21.40;93.40;;;;;;6077450;23;20016;-84
2022/09/05 06:58:59;;;;;;;4.38;3.95;;;21.50;93.20;;;;;;6112240;23;20022;-84
2022/09/05 07:01:33;;;;;;;4.60;3.87;;;21.60;93.20;;;;;;6031525;23;20015;-83
2022/09/05 07:04:15;;;;;;;6.57;4.85;;;21.70;93.10;;;;;;6054434;23;20018;-84
2022/09/05 07:07:12;;;;;;;7.32;5.35;;;21.80;93.10;;;;;;6078011;23;20014;-83
2022/09/05 07:09:54;;;;;;;5.50;4.38;;;21.90;93.00;;;;;;6054970;23;20006;-84
2022/09/05 07:12:33;;;;;;;4.45;3.75;;;22.10;92.90;;;;;;6078396;23;20021;-83
2022/09/05 07:15:21;;;;;;;5.70;4.70;;;22.10;92.70;;;;;;6104461;23;20008;-84
2022/09/05 07:18:06;;;;;;;3.67;3.20;;;22.30;92.60;;;;;;6087653;23;20010;-84
2022/09/05 07:21:04;;;;;;;3.95;3.00;;;22.40;92.50;;;;;;6054761;23;20014;-83
2022/09/05 07:23:54;;;;;;;4.70;4.13;;;22.60;92.40;;;;;;6078975;23;20018;-84
2022/09/05 07:26:22;;;;;;;5.97;3.42;;;22.70;92.30;;;;;;6111709;23;20477;-83
2022/09/05 07:28:56;;;;;;;4.60;4.03;;;22.90;92.10;;;;;;6102329;23;20006;-83
2022/09/05 07:31:27;;;;;;;3.58;3.25;;;23.00;91.90;;;;;;6102764;23;20007;-83
2022/09/05 07:34:28;;;;;;;4.55;3.95;;;23.10;91.80;;;;;;6078272;23;20279;-83
2022/09/05 07:37:19;;;;;;;5.28;3.03;;;23.30;91.70;;;;;;6076352;23;20455;-84
2022/09/05 07:59:59;;;;;;;4.38;2.90;;;24.20;90.40;;;;;;6016586;23;20015;-84
2022/09/05 08:03:13;;;;;;;2.88;2.50;;;24.40;90.10;;;;;;5966348;23;20011;-84
2022/09/05 08:05:49;;;;;;;4.13;2.97;;;24.60;89.40;;;;;;6073067;23;20010;-84
2022/09/05 08:08:23;;;;;;;8.38;4.78;;;24.70;89.00;;;;;;6053637;23;20438;-84
2022/09/05 08:10:57;;;;;;;5.82;4.20;;;24.90;88.50;;;;;;6076270;23;20034;-85
2022/09/05 08:13:53;;;;;;;5.50;3.03;;;25.00;87.90;;;;;;6064773;23;20481;-83
2022/09/05 08:16:22;;;;;;;4.63;3.45;;;25.10;87.60;;;;;;6041520;23;20491;-84
2022/09/05 08:19:26;;;;;;;5.50;3.80;;;25.20;87.50;;;;;;6053620;23;20011;-84
2022/09/05 08:21:54;;;;;;;4.70;3.92;;;25.20;87.20;;;;;;5994468;23;20023;-85
2022/09/05 08:24:49;;;;;;;3.72;3.22;;;25.30;87.00;;;;;;6043029;23;20019;-84
2022/09/05 08:27:21;;;;;;;4.97;3.13;;;25.40;86.70;;;;;;6017188;23;20447;-84
2022/09/05 08:30:07;;;;;;;3.67;3.22;;;25.40;86.40;;;;;;6075678;23;20007;-83
2022/09/05 08:32:47;;;;;;;7.10;4.15;;;25.50;86.20;;;;;;6027007;23;19999;-84
2022/09/05 08:35:37;;;;;;;5.15;4.68;;;25.70;85.90;;;;;;6065558;23;20019;-85
2022/09/05 08:38:04;;;;;;;6.18;4.70;;;25.80;85.30;;;;;;6018810;23;20014;-83
2022/09/05 08:40:37;;;;;;;5.50;4.32;;;25.90;84.80;;;;;;5995827;23;20046;-86
2022/09/05 08:43:28;;;;;;;7.00;4.22;;;26.00;84.60;;;;;;6053166;23;20012;-85
2022/09/05 08:45:54;;;;;;;5.75;4.45;;;26.10;84.00;;;;;;6040673;23;20374;-85
2022/09/05 08:48:39;;;;;;;5.10;3.70;;;26.20;83.70;;;;;;6037482;23;20008;-84
2022/09/05 08:51:26;;;;;;;4.70;3.50;;;26.40;83.50;;;;;;6023228;23;20011;-84
2022/09/05 08:54:24;;;;;;;3.85;3.20;;;26.60;82.80;;;;;;6018974;23;20069;-85
2022/09/05 08:57:03;;;;;;;3.97;3.30;;;26.70;83.00;;;;;;6022888;23;20008;-84
2022/09/05 09:00:03;;;;;;;3.60;3.15;;;26.90;82.00;;;;;;5989851;23;20058;-84
2022/09/05 09:02:55;;;;;;;4.13;3.03;;;27.10;81.70;;;;;;6013829;23;20008;-84
2022/09/05 09:06:17;;;;;;;3.67;3.08;;;27.30;81.10;;;;;;6023659;23;20015;-83
2022/09/05 09:09:07;;;;;;;3.13;2.83;;;27.50;80.60;;;;;;6024871;23;20016;-85
2022/09/05 09:11:41;;;;;;;4.60;3.72;;;27.60;80.10;;;;;;6022797;23;20010;-84
2022/09/05 09:14:30;;;;;;;4.50;4.07;;;27.70;79.80;;;;;;6019988;23;20010;-85
2022/09/05 09:17:15;;;;;;;5.93;3.28;;;27.80;79.10;;;;;;5989360;23;20016;-85
2022/09/05 09:19:47;;;;;;;2.85;2.65;;;27.90;78.90;;;;;;5990911;23;20373;-84
2022/09/05 09:22:32;;;;;;;3.42;1.63;;;28.00;78.50;;;;;;5967148;23;20021;-84
2022/09/05 09:25:17;;;;;;;3.20;1.90;;;28.10;78.10;;;;;;6037796;23;20022;-85
2022/09/05 09:28:04;;;;;;;4.93;2.35;;;28.20;77.50;;;;;;6046720;23;20011;-85
2022/09/05 09:30:33;;;;;;;2.97;2.15;;;28.30;76.70;;;;;;6000129;23;20004;-84
2022/09/05 09:33:05;;;;;;;4.32;2.38;;;28.30;76.70;;;;;;6013548;23;20011;-84
2022/09/05 09:35:55;;;;;;;3.55;1.73;;;28.40;76.40;;;;;;5966331;23;20008;-85
2022/09/05 09:38:34;;;;;;;3.55;2.00;;;28.60;76.00;;;;;;6022157;23;20007;-83
2022/09/05 09:41:25;;;;;;;4.93;2.13;;;28.80;75.60;;;;;;6070489;23;20014;-82
2022/09/05 09:43:57;;;;;;;3.40;2.55;;;28.90;75.10;;;;;;6020208;23;20018;-83
2022/09/05 09:46:40;;;;;;;4.05;2.65;;;29.10;74.60;;;;;;5989936;23;20337;-83
2022/09/05 09:49:16;;;;;;;3.95;2.10;;;29.20;73.90;;;;;;6024428;23;20474;-83
2022/09/05 09:51:42;;;;;;;3.55;1.95;;;29.40;73.30;;;;;;6025117;23;20432;-83
2022/09/05 09:54:30;;;;;;;3.88;1.13;;;29.50;72.50;;;;;;5990739;23;20012;-84
2022/09/05 09:57:25;;;;;;;2.42;1.10;;;29.70;71.90;;;;;;5990666;23;20019;-83
2022/09/05 10:00:13;;;;;;;1.05;0.55;;;29.80;71.40;;;;;;6022672;23;20103;-84
2022/09/05 10:03:14;;;;;;;1.58;0.70;;;30.00;70.50;;;;;;5990433;23;20026;-85
2022/09/05 10:06:02;;;;;;;2.22;0.90;;;30.20;69.60;;;;;;6013002;23;20012;-85
2022/09/05 10:09:05;;;;;;;3.03;0.85;;;30.30;68.30;;;;;;5988732;23;20008;-85
2022/09/05 10:12:05;;;;;;;1.90;0.70;;;30.30;67.40;;;;;;5990238;23;20007;-84
2022/09/05 10:14:56;;;;;;;1.15;0.57;;;30.40;66.50;;;;;;6016754;23;20033;-84
2022/09/05 10:17:40;;;;;;;3.42;0.50;;;30.50;65.10;;;;;;6036789;23;20034;-84
2022/09/05 10:20:38;;;;;;;1.63;0.57;;;30.70;64.50;;;;;;6012429;23;20461;-85
2022/09/05 10:23:32;;;;;;;3.20;0.60;;;30.90;63.40;;;;;;6012337;23;20008;-86
2022/09/05 10:26:34;;;;;;;1.77;0.77;;;31.20;62.60;;;;;;5992387;23;20027;-84
2022/09/05 10:29:20;;;;;;;1.17;0.50;;;31.40;62.10;;;;;;5992842;23;20015;-85
2022/09/05 10:32:07;;;;;;;1.23;0.60;;;31.70;61.10;;;;;;6025174;23;20356;-84
2022/09/05 10:34:58;;;;;;;1.35;0.60;;;31.90;60.80;;;;;;6063625;23;20023;-80
2022/09/05 10:37:39;;;;;;;1.85;0.77;;;32.40;60.30;;;;;;6011091;23;20014;-82
2022/09/05 10:40:11;;;;;;;1.05;0.40;;;32.70;59.50;;;;;;6065540;23;20003;-83
2022/09/05 10:42:44;;;;;;;1.08;0.40;;;33.00;59.00;;;;;;6067083;23;20014;-81
2022/09/05 10:45:28;;;;;;;2.55;0.40;;;33.40;57.30;;;;;;6062031;23;20073;-82
2022/09/05 10:48:08;;;;;;;2.20;0.60;;;33.70;55.60;;;;;;6049756;23;20336;-82
2022/09/05 10:50:54;;;;;;;1.38;0.40;;;33.90;54.90;;;;;;6048531;23;20003;-82
2022/09/05 10:53:52;;;;;;;0.70;0.40;;;34.20;53.70;;;;;;6072324;23;20023;-81
2022/09/05 10:56:23;;;;;;;0.80;0.40;;;34.50;52.60;;;;;;5982191;23;20271;-82
2022/09/05 10:59:03;;;;;;;1.92;0.40;;;34.90;50.50;;;;;;6060480;23;20039;-80
2022/09/05 11:01:40;;;;;;;1.35;0.50;;;35.20;49.80;;;;;;6047021;23;20463;-82
2022/09/05 11:04:42;;;;;;;0.80;0.32;;;35.50;49.10;;;;;;6013610;23;20011;-80
2022/09/05 11:07:16;;;;;;;1.00;0.50;;;36.00;48.50;;;;;;6035508;23;20021;-82
2022/09/05 11:10:23;;;;;;;2.15;0.40;;;36.40;47.60;;;;;;6042353;23;20003;-81
2022/09/05 11:13:07;;;;;;;1.00;0.38;;;36.80;45.30;;;;;;6065900;23;20511;-81
2022/09/05 11:16:02;;;;;;;4.07;0.40;;;37.00;45.20;;;;;;6033472;23;19999;-81
2022/09/05 11:18:37;;;;;;;0.77;0.30;;;37.20;44.30;;;;;;6034166;23;20052;-81
2022/09/05 11:21:09;;;;;;;0.85;0.40;;;37.30;44.10;;;;;;6035252;23;20359;-83
2022/09/05 11:23:45;;;;;;;4.93;4.50;;;37.60;43.50;;;;;;6041383;23;20023;-84
2022/09/05 11:26:41;;;;;;;4.68;4.28;;;37.80;43.40;;;;;;6044762;23;20007;-82
2022/09/05 11:29:20;;;;;;;8.90;8.10;;;38.30;42.90;;;;;;6047556;23;20011;-81
2022/09/05 11:32:34;;;;;;;2.47;0.90;;;38.60;42.10;;;;;;6009621;23;20034;-83
2022/09/05 11:35:23;;;;;;;2.22;1.52;;;38.80;41.30;;;;;;5982418;23;20020;-84
2022/09/05 11:38:08;;;;;;;1.10;0.55;;;38.90;40.70;;;;;;6009160;23;20014;-81
2022/09/05 11:40:59;;;;;;;0.57;0.30;;;39.00;40.50;;;;;;6010461;23;20030;-82
2022/09/05 11:43:59;;;;;;;1.25;0.40;;;39.20;40.30;;;;;;6010726;23;20003;-84
2022/09/05 11:46:51;;;;;;;0.68;0.40;;;39.40;39.50;;;;;;6034350;23;20008;-82
2022/09/05 11:49:25;;;;;;;0.82;0.30;;;39.60;39.40;;;;;;6007339;23;20014;-84
2022/09/05 11:52:20;;;;;;;0.40;0.30;;;39.80;39.40;;;;;;5984676;23;20015;-83
2022/09/05 11:55:01;;;;;;;1.95;0.50;;;40.10;39.00;;;;;;6008133;23;20019;-83
2022/09/05 11:57:37;;;;;;;0.73;0.40;;;40.30;39.00;;;;;;6044134;23;20007;-84
2022/09/05 12:00:12;;;;;;;1.58;0.40;;;40.50;38.30;;;;;;6018773;23;20011;-83
2022/09/05 12:02:51;;;;;;;0.90;0.30;;;40.70;38.00;;;;;;5962802;23;20015;-83
2022/09/05 12:05:39;;;;;;;2.05;0.30;;;40.90;37.30;;;;;;6037006;23;20011;-84
2022/09/05 12:08:29;;;;;;;1.90;0.30;;;41.20;37.70;;;;;;5961975;23;20007;-83
2022/09/05 12:11:25;;;;;;;0.52;0.30;;;41.50;37.30;;;;;;6045030;23;19999;-83
2022/09/05 12:14:03;;;;;;;0.90;0.50;;;41.80;37.30;;;;;;5986972;23;20015;-83
2022/09/05 12:16:54;;;;;;;0.82;0.40;;;42.10;36.50;;;;;;5963430;23;20011;-82
2022/09/05 12:19:54;;;;;;;2.70;0.40;;;42.10;36.00;;;;;;6021004;23;20007;-83
2022/09/05 12:22:28;;;;;;;1.33;0.40;;;42.10;35.10;;;;;;5961848;23;20018;-83
2022/09/05 12:25:25;;;;;;;0.60;0.40;;;42.10;35.40;;;;;;5984754;23;20015;-81
2022/09/05 12:27:56;;;;;;;0.75;0.30;;;42.40;35.70;;;;;;6007775;23;20003;-83
2022/09/05 12:30:26;;;;;;;1.35;0.40;;;42.50;35.40;;;;;;5995745;23;20470;-82
2022/09/05 12:32:57;;;;;;;0.80;0.40;;;42.70;36.20;;;;;;5999124;23;20448;-83
2022/09/05 12:35:30;;;;;;;;;;;43.00;34.70;;;;;;6051347;23;20010;-83
2022/09/05 12:38:07;;;;;;;1.35;0.50;;;43.00;34.70;;;;;;6025763;23;20322;-84
2022/09/05 12:41:09;;;;;;;1.55;0.50;;;43.20;34.40;;;;;;6050561;23;20011;-83
2022/09/05 12:43:44;;;;;;;0.70;0.40;;;43.50;33.80;;;;;;6002548;23;20066;-83
2022/09/05 12:46:22;;;;;;;0.52;0.40;;;43.60;34.00;;;;;;6024975;23;20019;-83
2022/09/05 12:48:59;;;;;;;1.13;0.43;;;43.70;34.10;;;;;;6048869;23;20022;-83
2022/09/05 12:51:32;;;;;;;1.55;0.50;;;44.10;34.10;;;;;;6039874;23;20015;-83
2022/09/05 12:54:08;;;;;;;1.05;0.40;;;44.40;33.30;;;;;;6039855;23;20025;-83
2022/09/05 12:56:49;;;;;;;0.73;0.30;;;44.30;32.80;;;;;;6048301;23;20007;-85
2022/09/05 12:59:20;;;;;;;1.30;0.40;;;44.40;32.50;;;;;;6048206;23;20022;-84
2022/09/05 13:02:02;;;;;;;1.30;0.73;;;44.40;31.80;;;;;;6049075;23;20014;-82
2022/09/05 13:04:35;;;;;;;0.98;0.70;;;44.40;32.40;;;;;;6046008;23;20342;-81
2022/09/05 13:07:21;;;;;;;0.70;0.43;;;44.40;32.40;;;;;;6017440;23;20018;-83
2022/09/05 13:09:55;;;;;;;0.93;0.57;;;44.70;31.90;;;;;;6075486;23;20011;-83
2022/09/05 13:12:34;;;;;;;1.42;0.40;;;45.00;31.50;;;;;;6044736;23;20010;-83
2022/09/05 13:15:17;;;;;;;0.95;0.40;;;45.00;30.90;;;;;;6084911;23;20010;-83
2022/09/05 13:17:50;;;;;;;1.13;0.45;;;44.60;30.80;;;;;;6050754;23;20029;-84
2022/09/05 13:20:33;;;;;;;0.70;0.47;;;44.60;31.30;;;;;;6022464;23;20014;-83
2022/09/05 13:23:25;;;;;;;3.42;0.50;;;44.70;31.60;;;;;;6069860;23;20366;-83
2022/09/05 13:26:02;;;;;;;2.13;0.60;;;44.90;32.00;;;;;;6068595;23;20375;-83
2022/09/05 13:28:51;;;;;;;1.70;1.58;;;45.10;31.60;;;;;;6043826;23;20033;-82
2022/09/05 13:31:39;;;;;;;3.03;1.80;;;45.60;31.60;;;;;;6055015;23;20279;-82
2022/09/05 13:34:36;;;;;;;0.70;0.50;;;45.80;30.90;;;;;;6069485;23;20436;-81
2022/09/05 13:37:19;;;;;;;1.05;0.40;;;45.40;31.40;;;;;;6078734;23;20013;-82
2022/09/05 13:39:55;;;;;;;1.65;0.40;;;45.70;31.20;;;;;;6031011;23;20007;-83
2022/09/05 13:42:27;;;;;;;0.82;0.30;;;46.20;30.90;;;;;;6020407;23;20356;-83
2022/09/05 13:44:57;;;;;;;1.00;0.40;;;46.30;30.70;;;;;;6048494;23;20556;-83
2022/09/05 13:47:32;;;;;;;;;;;46.20;30.80;;;;;;6043990;23;20015;-84
2022/09/05 13:49:58;;;;;;;0.75;0.50;;;46.00;30.70;;;;;;6043208;23;19920;-84
2022/09/05 13:52:37;;;;;;;0.95;0.60;;;45.50;30.50;;;;;;6043659;23;20011;-83
2022/09/05 13:55:37;;;;;;;1.10;0.60;;;45.40;30.70;;;;;;6072947;23;20014;-83
2022/09/05 13:58:35;;;;;;;1.50;1.10;;;45.60;31.50;;;;;;6054595;23;20011;-80
2022/09/05 14:01:13;;;;;;;1.20;0.82;;;46.00;30.10;;;;;;6054387;23;20007;-83
2022/09/05 14:04:06;;;;;;;2.30;0.60;;;46.30;30.00;;;;;;6053216;23;20007;-83
2022/09/05 14:06:48;;;;;;;1.10;0.50;;;46.00;30.10;;;;;;6044218;23;20002;-82
2022/09/05 14:09:52;;;;;;;0.88;0.40;;;45.50;30.00;;;;;;6044843;23;20011;-82
2022/09/05 14:12:40;;;;;;;0.77;0.40;;;45.80;30.10;;;;;;6068296;23;20023;-82
2022/09/05 14:15:37;;;;;;;2.40;0.30;;;46.30;30.00;;;;;;6018108;23;20007;-82
2022/09/05 14:18:06;;;;;;;0.95;0.50;;;46.80;30.00;;;;;;6043108;23;20011;-82
2022/09/05 14:23:40;;;;;;;0.82;0.30;;;45.30;29.90;;;;;;6043432;23;20482;-82
2022/09/05 14:26:23;;;;;;;1.42;0.40;;;43.00;31.40;;;;;;6050822;23;20003;-82
2022/09/05 14:29:14;;;;;;;0.80;0.35;;;41.20;32.50;;;;;;6074908;23;20014;-81
2022/09/05 14:31:52;;;;;;;1.42;0.40;;;39.60;33.60;;;;;;6068226;23;20023;-83
2022/09/05 14:34:52;;;;;;;0.60;0.32;;;38.30;34.20;;;;;;6074758;23;20003;-82
2022/09/05 14:37:55;;;;;;;1.83;0.40;;;37.30;34.70;;;;;;6042504;23;20367;-83
2022/09/05 14:40:44;;;;;;;0.85;0.40;;;36.40;35.50;;;;;;6076253;23;20010;-81
2022/09/05 14:43:31;;;;;;;1.42;0.32;;;35.70;36.20;;;;;;6053555;23;20011;-83
2022/09/05 14:46:41;;;;;;;2.28;0.40;;;35.30;36.80;;;;;;6069073;23;20019;-86
2022/09/05 14:49:43;;;;;;;1.00;0.60;;;34.90;37.10;;;;;;5979618;23;20015;-83
2022/09/05 14:52:22;;;;;;;1.27;0.50;;;34.60;37.50;;;;;;6076971;23;20010;-81
2022/09/05 14:54:54;;;;;;;1.08;0.40;;;34.40;37.60;;;;;;6040832;23;20007;-82
2022/09/05 14:57:26;;;;;;;1.38;0.30;;;34.20;37.80;;;;;;6016863;23;20017;-82
2022/09/05 14:59:56;;;;;;;0.98;0.43;;;34.10;38.00;;;;;;6075445;23;20011;-82
2022/09/05 15:02:33;;;;;;;0.82;0.30;;;34.00;38.20;;;;;;6065465;23;20017;-82
2022/09/05 15:05:12;;;;;;;1.85;0.50;;;33.90;38.60;;;;;;5995570;23;20015;-82
2022/09/05 15:07:44;;;;;;;1.63;0.50;;;33.80;38.50;;;;;;6041860;23;20015;-79
2022/09/05 15:10:19;;;;;;;3.38;0.52;;;33.70;38.70;;;;;;6040916;23;20339;-82
2022/09/05 15:12:50;;;;;;;0.80;0.30;;;33.50;39.00;;;;;;6077839;23;20009;-82
2022/09/05 15:15:24;;;;;;;2.55;0.40;;;33.40;39.00;;;;;;6069628;23;20006;-81
2022/09/05 15:17:58;;;;;;;0.80;0.30;;;33.30;39.00;;;;;;6052678;23;20339;-81
2022/09/05 15:20:35;;;;;;;1.17;0.40;;;33.20;38.90;;;;;;6065998;23;20011;-80
2022/09/05 15:23:05;;;;;;;1.15;0.55;;;33.00;38.80;;;;;;6078214;23;20007;-81
2022/09/05 15:25:43;;;;;;;1.35;0.30;;;33.00;38.90;;;;;;6044134;23;20032;-81
2022/09/05 15:28:20;;;;;;;1.00;0.30;;;32.90;39.10;;;;;;6078660;23;20213;-82
2022/09/05 15:30:58;;;;;;;2.78;0.45;;;32.80;39.00;;;;;;6043886;23;20010;-82
2022/09/05 15:33:28;;;;;;;0.65;0.40;;;32.70;39.00;;;;;;6043695;23;20015;-83
2022/09/05 15:35:57;;;;;;;1.30;0.40;;;32.50;39.00;;;;;;6067747;23;20014;-83
2022/09/05 15:38:23;;;;;;;0.75;0.40;;;32.30;39.00;;;;;;6021433;23;20017;-80
2022/09/05 15:41:14;;;;;;;2.60;0.80;;;32.10;39.00;;;;;;6071756;23;20019;-81
2022/09/05 15:43:51;;;;;;;2.17;0.40;;;32.00;39.20;;;;;;6080599;23;20007;-82
2022/09/05 15:46:41;;;;;;;0.85;0.40;;;31.90;39.40;;;;;;6070484;23;20010;-81
2022/09/05 15:49:21;;;;;;;0.82;0.40;;;31.90;39.20;;;;;;6049100;23;20018;-82
2022/09/05 15:51:55;;;;;;;0.70;0.40;;;31.90;39.20;;;;;;5997882;23;20007;-82
2022/09/05 15:54:26;;;;;;;0.85;0.52;;;31.90;39.50;;;;;;6050949;23;20002;-82
2022/09/05 15:56:56;;;;;;;0.85;0.40;;;31.80;39.20;;;;;;6028795;23;20014;-82
2022/09/05 15:59:27;;;;;;;0.70;0.35;;;31.70;39.50;;;;;;6066693;23;20011;-82
2022/09/05 16:01:54;;;;;;;0.73;0.35;;;31.50;39.70;;;;;;6045266;23;20011;-83
2022/09/05 16:04:25;;;;;;;0.90;0.40;;;31.40;39.50;;;;;;6045853;23;20018;-81
2022/09/05 16:06:56;;;;;;;1.88;0.30;;;31.30;39.80;;;;;;6082289;23;20447;-84
2022/09/05 16:09:40;;;;;;;1.00;0.30;;;31.20;40.00;;;;;;5999485;23;20035;-85
2022/09/05 16:12:11;;;;;;;1.85;0.95;;;31.10;40.00;;;;;;6046554;23;20011;-84
2022/09/05 16:14:49;;;;;;;3.08;0.85;;;31.10;39.90;;;;;;6023263;23;20011;-83
2022/09/05 16:17:33;;;;;;;2.30;0.60;;;31.20;40.00;;;;;;6072275;23;19995;-82
2022/09/05 16:20:13;;;;;;;1.52;0.60;;;31.20;40.10;;;;;;6047665;23;20045;-83
2022/09/05 16:22:49;;;;;;;1.92;0.90;;;31.10;40.00;;;;;;6082598;23;20007;-83
2022/09/05 16:25:21;;;;;;;1.23;0.50;;;31.00;40.00;;;;;;6047248;23;20011;-83
2022/09/05 16:27:55;;;;;;;0.98;0.50;;;31.00;40.00;;;;;;6071475;23;20015;-82
2022/09/05 16:30:33;;;;;;;1.15;0.47;;;30.90;39.90;;;;;;6046959;23;20010;-80
2022/09/05 16:33:03;;;;;;;0.80;0.40;;;30.80;39.60;;;;;;6048320;23;20019;-83
2022/09/05 16:35:35;;;;;;;0.68;0.40;;;30.80;39.80;;;;;;6059572;23;20022;-84
2022/09/05 16:38:18;;;;;;;0.80;0.40;;;30.60;40.10;;;;;;6098458;23;20006;-83
2022/09/05 16:40:52;;;;;;;2.22;0.40;;;30.50;40.30;;;;;;6114889;23;20016;-84
2022/09/05 16:43:22;;;;;;;1.85;0.77;;;30.50;40.60;;;;;;6115746;23;20016;-84
2022/09/05 16:46:03;;;;;;;0.90;0.40;;;30.40;40.90;;;;;;6084359;23;20013;-84
2022/09/05 16:48:48;;;;;;;1.80;0.40;;;30.40;41.10;;;;;;6057441;23;20013;-84
2022/09/05 16:51:20;;;;;;;1.05;0.40;;;30.30;41.30;;;;;;6090841;23;20262;-84
2022/09/05 16:54:04;;;;;;;0.43;0.30;;;30.20;41.20;;;;;;6092751;23;20093;-84
2022/09/05 16:56:52;;;;;;;0.75;0.35;;;30.20;41.50;;;;;;6106693;23;20339;-84
2022/09/05 16:59:28;;;;;;;3.17;0.50;;;30.10;41.70;;;;;;6091339;23;20006;-84
2022/09/05 17:02:26;;;;;;;1.10;0.40;;;30.00;41.90;;;;;;6080443;23;20012;-84
2022/09/05 17:05:10;;;;;;;0.60;0.30;;;30.00;42.10;;;;;;6104490;23;20017;-84
2022/09/05 17:08:06;;;;;;;0.73;0.40;;;29.90;42.30;;;;;;6117154;23;20014;-85
2022/09/05 17:10:51;;;;;;;0.43;0.30;;;29.80;42.50;;;;;;6054320;23;20011;-84
2022/09/05 17:13:41;;;;;;;1.52;0.38;;;29.60;42.50;;;;;;6115827;23;20003;-84
2022/09/05 17:16:12;;;;;;;1.05;0.32;;;29.50;42.90;;;;;;6058130;23;20003;-84
2022/09/05 17:18:40;;;;;;;0.80;0.50;;;29.30;43.10;;;;;;6115778;23;20010;-84
2022/09/05 17:21:19;;;;;;;1.38;0.50;;;29.10;43.30;;;;;;6105912;23;20571;-84
2022/09/05 17:23:51;;;;;;;3.00;0.30;;;29.10;43.60;;;;;;6118131;23;20016;-84
2022/09/05 17:26:35;;;;;;;0.93;0.50;;;28.90;43.60;;;;;;6057605;23;20010;-83
2022/09/05 17:29:05;;;;;;;0.77;0.40;;;28.70;43.90;;;;;;6090935;23;20006;-84
2022/09/05 17:31:54;;;;;;;1.00;0.40;;;28.60;44.10;;;;;;6109935;23;20006;-84
2022/09/05 17:35:01;;;;;;;0.77;0.30;;;28.50;44.60;;;;;;6087440;23;20013;-84
2022/09/05 17:38:03;;;;;;;0.85;0.40;;;28.30;44.80;;;;;;6121176;23;20021;-84
2022/09/05 17:40:40;;;;;;;1.13;0.40;;;28.10;45.10;;;;;;6051623;23;20010;-82
2022/09/05 17:43:21;;;;;;;0.85;0.40;;;28.00;45.50;;;;;;6064156;23;20016;-84
2022/09/05 17:45:55;;;;;;;1.98;0.50;;;27.90;45.70;;;;;;6113487;23;20010;-83
2022/09/05 17:48:46;;;;;;;0.70;0.40;;;27.80;46.00;;;;;;6097024;23;20342;-84
2022/09/05 17:51:25;;;;;;;2.45;0.55;;;27.70;46.60;;;;;;6073022;23;20010;-84
2022/09/05 17:54:06;;;;;;;0.80;0.50;;;27.60;47.10;;;;;;6061477;23;20025;-84
2022/09/05 17:56:37;;;;;;;2.80;0.60;;;27.50;47.40;;;;;;6114061;23;20010;-83
2022/09/05 17:59:12;;;;;;;1.88;0.60;;;27.40;47.60;;;;;;6093809;23;20006;-83
2022/09/05 18:01:44;;;;;;;2.30;0.70;;;27.30;48.10;;;;;;6128241;23;20006;-83
2022/09/05 18:04:39;;;;;;;1.98;0.60;;;27.20;48.40;;;;;;6068589;23;20017;-85
2022/09/05 18:07:29;;;;;;;2.95;0.70;;;27.10;48.90;;;;;;6069542;23;20013;-85
2022/09/05 18:10:00;;;;;;;2.78;0.60;;;26.90;49.10;;;;;;6094222;23;20007;-84
2022/09/05 18:12:36;;;;;;;1.33;0.70;;;26.80;49.50;;;;;;6067080;23;20014;-85
2022/09/05 18:15:04;;;;;;;2.53;0.60;;;26.70;49.90;;;;;;6108361;23;20017;-84
2022/09/05 18:17:40;;;;;;;2.25;0.80;;;26.60;50.00;;;;;;6060386;23;20339;-84
2022/09/05 18:20:31;;;;;;;1.65;0.60;;;26.60;50.30;;;;;;6082863;23;20014;-84
2022/09/05 18:23:24;;;;;;;1.27;0.57;;;26.50;50.40;;;;;;6059752;23;20014;-84
2022/09/05 18:25:52;;;;;;;4.93;0.68;;;26.50;50.70;;;;;;6048665;23;20547;-84
2022/09/05 18:28:30;;;;;;;3.97;0.60;;;26.40;51.10;;;;;;6082567;23;20006;-84
2022/09/05 18:30:56;;;;;;;1.38;0.60;;;26.20;51.30;;;;;;6087684;23;20014;-84
2022/09/05 18:33:22;;;;;;;1.05;0.50;;;26.20;51.50;;;;;;6075263;23;20012;-85
2022/09/05 18:35:55;;;;;;;1.85;0.60;;;26.10;51.70;;;;;;6052590;23;20362;-85
2022/09/05 18:38:26;;;;;;;1.77;0.60;;;26.10;51.90;;;;;;6077675;23;20010;-83
2022/09/05 18:41:01;;;;;;;1.67;0.88;;;26.00;52.00;;;;;;6054257;23;20021;-83
2022/09/05 18:43:48;;;;;;;1.17;0.60;;;26.00;52.20;;;;;;6052181;23;20599;-85
2022/09/05 18:46:26;;;;;;;2.50;0.70;;;26.00;52.50;;;;;;6053772;23;20020;-84
2022/09/05 18:49:01;;;;;;;1.45;0.60;;;25.90;52.50;;;;;;6117954;23;20010;-85